createdAt,value
2019-03-04T18:29:04.455Z,8.40
2019-03-04T18:31:43.911Z,8.40
2019-03-04T18:34:36.636Z,8.40
2019-03-04T18:37:18.217Z,8.40
2019-03-04T18:39:55.060Z,8.40
2019-03-04T18:42:34.834Z,8.30
2019-03-04T18:51:44.923Z,8.40
2019-03-04T18:54:12.842Z,8.40
2019-03-04T18:56:40.759Z,8.40
2019-03-04T18:59:08.625Z,8.40
2019-03-04T19:01:40.306Z,8.40
2019-03-04T19:04:09.794Z,8.50
2019-03-04T19:06:39.621Z,8.50
2019-03-04T19:09:10.640Z,8.50
2019-03-04T19:11:40.144Z,8.50
2019-03-04T19:14:08.132Z,8.60
2019-03-04T19:16:36.819Z,8.70
2019-03-04T19:19:07.112Z,8.70
2019-03-04T19:21:35.226Z,8.80
2019-03-04T19:24:03.397Z,8.80
2019-03-04T19:26:35.270Z,8.80
2019-03-04T19:29:04.005Z,8.80
2019-03-04T19:31:36.488Z,8.80
2019-03-04T19:34:31.091Z,8.70
2019-03-04T19:37:01.028Z,8.80
2019-03-04T19:39:29.452Z,8.80
2019-03-04T19:41:57.991Z,8.80
2019-03-04T19:44:26.942Z,8.80
2019-03-04T19:46:57.105Z,8.80
2019-03-04T19:49:25.390Z,8.80
2019-03-04T19:51:55.094Z,8.80
2019-03-04T19:54:23.702Z,8.80
2019-03-04T19:56:53.815Z,8.80
2019-03-04T19:59:23.092Z,8.80
2019-03-04T20:01:50.980Z,8.80
2019-03-04T20:04:19.553Z,8.80
2019-03-04T20:06:48.649Z,8.80
2019-03-04T20:09:16.541Z,8.80
2019-03-04T20:11:44.733Z,8.80
2019-03-04T20:14:12.616Z,8.80
2019-03-04T20:16:41.493Z,8.80
2019-03-04T20:19:09.630Z,8.80
2019-03-04T20:21:37.693Z,8.90
2019-03-04T20:24:05.584Z,8.80
2019-03-04T20:26:33.388Z,8.80
2019-03-04T20:29:01.456Z,8.90
2019-03-04T20:31:30.129Z,8.90
2019-03-04T20:33:58.012Z,8.90
2019-03-04T20:36:26.012Z,8.90
2019-03-04T20:38:54.774Z,9.00
2019-03-04T20:41:22.676Z,9.00
2019-03-04T20:43:50.761Z,8.90
2019-03-04T20:46:18.551Z,8.90
2019-03-04T20:48:46.311Z,8.90
2019-03-04T20:51:14.153Z,8.90
2019-03-04T20:53:41.936Z,8.80
2019-03-04T20:56:09.758Z,8.80
2019-03-04T20:58:37.620Z,8.80
2019-03-04T21:01:05.539Z,8.80
2019-03-04T21:03:35.054Z,8.80
2019-03-04T21:06:02.943Z,8.80
2019-03-04T21:08:30.965Z,8.80
2019-03-04T21:10:58.953Z,8.80
